Time;durP1;ratioP1;P1;durP2;ratioP2;P2;SDS_P1;SDS_P2;PMS_P1;PMS_P2;Temp;Humidity;BMP_temperature;BMP_pressure;BME280_temperature;BME280_humidity;BME280_pressure;Samples;Min_cycle;Max_cycle;Signal;HPM_P1;HPM_P2
2022/01/10 00:02:20;;;;;;;19.08;5.45;;;25.40;99.90;;;;;;5036428;28;20025;-63
2022/01/10 00:04:47;;;;;;;18.15;6.57;;;25.30;99.90;;;;;;5029807;28;20083;-63
2022/01/10 00:07:14;;;;;;;21.00;7.30;;;25.20;99.90;;;;;;5035375;28;20436;-63
2022/01/10 00:09:41;;;;;;;16.88;4.57;;;25.20;99.90;;;;;;5034216;28;20033;-63
2022/01/10 00:12:09;;;;;;;18.27;3.53;;;25.20;99.90;;;;;;5037484;28;20034;-62
2022/01/10 00:14:37;;;;;;;17.48;3.72;;;25.10;99.90;;;;;;5034358;28;20056;-63
2022/01/10 00:17:07;;;;;;;21.25;4.32;;;25.10;99.90;;;;;;5026155;28;20394;-63
2022/01/10 00:19:34;;;;;;;20.05;3.95;;;25.10;99.90;;;;;;5032052;28;20037;-63
2022/01/10 00:22:01;;;;;;;19.25;4.97;;;25.00;99.90;;;;;;5032530;28;20493;-63
2022/01/10 00:24:28;;;;;;;22.35;4.30;;;25.00;99.90;;;;;;5030785;28;20037;-63
2022/01/10 00:26:55;;;;;;;15.40;4.10;;;25.00;99.90;;;;;;5015079;28;20021;-63
2022/01/10 00:29:23;;;;;;;17.70;3.53;;;24.90;99.90;;;;;;5032770;28;20026;-63
2022/01/10 00:31:50;;;;;;;18.92;3.90;;;24.90;99.90;;;;;;5032971;28;20080;-63
2022/01/10 00:34:17;;;;;;;16.60;3.67;;;24.90;99.90;;;;;;5034293;28;20504;-63
2022/01/10 00:36:46;;;;;;;16.27;3.45;;;24.80;99.90;;;;;;5040826;28;20049;-63
2022/01/10 00:39:13;;;;;;;18.90;4.88;;;24.80;99.90;;;;;;5032166;28;20067;-63
2022/01/10 00:41:41;;;;;;;17.67;3.92;;;24.70;99.90;;;;;;5027254;28;20557;-63
2022/01/10 00:44:10;;;;;;;16.65;3.60;;;24.70;99.90;;;;;;5034161;28;20045;-62
2022/01/10 00:46:37;;;;;;;17.02;3.60;;;24.70;99.90;;;;;;5032826;28;20029;-62
2022/01/10 00:49:05;;;;;;;17.23;3.38;;;24.70;99.90;;;;;;5031340;28;20037;-62
2022/01/10 00:51:33;;;;;;;15.45;3.40;;;24.80;99.90;;;;;;5034554;28;20450;-62
2022/01/10 00:54:03;;;;;;;26.40;4.20;;;24.70;99.90;;;;;;5033131;28;20108;-62
2022/01/10 00:56:31;;;;;;;16.73;3.25;;;24.80;99.90;;;;;;5040382;28;20041;-62
2022/01/10 00:58:58;;;;;;;16.98;2.88;;;24.90;99.90;;;;;;5033663;28;20432;-62
2022/01/10 01:01:25;;;;;;;16.45;3.72;;;24.90;99.90;;;;;;5034344;28;20024;-62
2022/01/10 01:03:52;;;;;;;17.40;3.20;;;25.30;99.90;;;;;;5025582;28;20028;-62
2022/01/10 01:06:20;;;;;;;21.25;4.05;;;25.60;99.90;;;;;;5034803;28;20021;-62
2022/01/10 01:08:47;;;;;;;20.13;3.67;;;25.60;99.90;;;;;;5037539;28;20030;-62
2022/01/10 01:14:08;;;;;;;16.20;3.72;;;25.60;99.90;;;;;;5030868;28;20080;-62
2022/01/10 01:24:25;;;;;;;14.60;3.13;;;25.80;99.90;;;;;;5028229;28;20551;-62
2022/01/10 01:26:53;;;;;;;13.00;2.47;;;25.70;99.90;;;;;;5029373;28;20112;-62
2022/01/10 01:29:24;;;;;;;16.88;3.50;;;25.60;99.90;;;;;;5025975;28;20110;-62
2022/01/10 01:31:52;;;;;;;18.67;2.78;;;25.50;99.90;;;;;;5034325;28;20052;-63
2022/01/10 01:34:21;;;;;;;15.55;3.15;;;25.50;99.90;;;;;;5032655;28;20383;-63
2022/01/10 01:36:52;;;;;;;16.25;2.75;;;25.50;99.90;;;;;;5031161;28;20021;-63
2022/01/10 01:39:23;;;;;;;17.25;3.03;;;25.50;99.90;;;;;;5043264;28;20025;-63
2022/01/10 01:42:01;;;;;;;18.65;3.85;;;25.60;99.90;;;;;;5034463;28;20013;-63
2022/01/10 01:44:29;;;;;;;17.35;2.83;;;25.60;99.90;;;;;;5030560;28;20030;-62
2022/01/10 01:46:56;;;;;;;11.35;2.75;;;25.90;99.90;;;;;;5032972;28;20032;-62
2022/01/10 01:49:23;;;;;;;13.98;3.33;;;26.40;99.90;;;;;;5032721;28;20151;-62
2022/01/10 01:51:51;;;;;;;21.33;3.88;;;26.80;99.90;;;;;;5012853;28;20462;-62
2022/01/10 01:54:20;;;;;;;16.35;3.63;;;26.70;99.90;;;;;;5029033;28;20415;-62
2022/01/10 01:56:49;;;;;;;15.77;2.78;;;26.60;99.90;;;;;;5031699;28;20167;-62
2022/01/10 01:59:17;;;;;;;12.82;2.60;;;26.30;99.90;;;;;;5031889;28;20398;-62
2022/01/10 02:01:44;;;;;;;19.65;3.63;;;26.10;99.90;;;;;;5032007;28;20033;-62
2022/01/10 02:04:12;;;;;;;18.25;3.20;;;25.90;99.90;;;;;;5031707;28;20037;-62
2022/01/10 02:06:39;;;;;;;15.13;3.42;;;25.80;99.90;;;;;;5030747;28;20038;-62
2022/01/10 02:09:06;;;;;;;14.27;3.05;;;25.60;99.90;;;;;;5028552;28;20029;-62
2022/01/10 02:11:34;;;;;;;15.93;3.90;;;25.50;99.90;;;;;;5029650;28;20092;-62
2022/01/10 02:14:01;;;;;;;15.38;3.47;;;25.40;99.90;;;;;;5027594;28;20025;-62
2022/01/10 02:16:52;;;;;;;21.58;3.95;;;25.40;99.90;;;;;;5030781;28;20045;-62
2022/01/10 02:19:20;;;;;;;17.23;3.30;;;25.40;99.90;;;;;;5030094;28;20052;-62
2022/01/10 02:21:47;;;;;;;15.32;2.45;;;25.70;99.90;;;;;;5031484;28;20410;-62
2022/01/10 02:24:14;;;;;;;21.75;4.15;;;25.90;99.90;;;;;;5030228;28;20132;-65
2022/01/10 02:26:46;;;;;;;17.13;3.88;;;26.00;99.90;;;;;;5030013;28;20033;-65
2022/01/10 02:29:13;;;;;;;14.10;3.05;;;26.30;99.90;;;;;;5030955;28;20046;-65
2022/01/10 02:31:42;;;;;;;15.68;3.53;;;26.70;99.90;;;;;;5013624;28;20512;-65
2022/01/10 02:34:16;;;;;;;17.08;3.67;;;27.10;99.90;;;;;;5031658;28;20041;-65
2022/01/10 02:36:44;;;;;;;18.15;2.65;;;27.30;99.90;;;;;;5031334;28;20155;-64
2022/01/10 02:39:11;;;;;;;14.48;3.22;;;27.20;99.90;;;;;;5031649;28;20525;-65
2022/01/10 02:41:42;;;;;;;15.25;3.05;;;27.00;99.90;;;;;;5030944;28;20048;-65
2022/01/10 02:44:13;;;;;;;13.60;3.05;;;26.80;99.90;;;;;;5032009;28;20101;-65
2022/01/10 02:46:42;;;;;;;16.70;2.75;;;27.10;99.90;;;;;;5032391;28;20116;-65
2022/01/10 02:49:16;;;;;;;14.85;2.78;;;27.30;99.90;;;;;;5032949;28;20025;-65
2022/01/10 02:51:43;;;;;;;18.33;2.63;;;27.30;99.90;;;;;;5035920;28;20049;-65
2022/01/10 02:54:12;;;;;;;14.82;3.63;;;27.20;99.90;;;;;;5035809;28;20025;-65
2022/01/10 02:56:54;;;;;;;15.50;2.55;;;26.90;99.90;;;;;;5035528;28;20033;-65
2022/01/10 02:59:22;;;;;;;16.45;2.30;;;27.00;99.90;;;;;;5024286;28;20026;-65
2022/01/10 03:01:51;;;;;;;22.60;3.63;;;27.20;99.90;;;;;;5035064;28;20029;-65
2022/01/10 03:04:19;;;;;;;15.75;3.10;;;27.20;99.90;;;;;;5034483;28;20030;-65
2022/01/10 03:06:48;;;;;;;19.02;2.63;;;27.10;99.90;;;;;;5018581;28;20393;-65
2022/01/10 03:09:18;;;;;;;19.35;2.58;;;27.10;99.90;;;;;;5035502;28;20080;-65
2022/01/10 03:11:45;;;;;;;15.27;2.60;;;27.00;99.90;;;;;;5034805;28;20423;-65
2022/01/10 03:14:13;;;;;;;8.65;2.20;;;26.90;99.90;;;;;;5017012;28;20040;-65
2022/01/10 03:16:41;;;;;;;14.85;2.55;;;27.00;99.90;;;;;;5035729;28;20116;-64
2022/01/10 03:19:08;;;;;;;19.38;3.67;;;26.90;99.90;;;;;;5035283;28;20053;-64
2022/01/10 03:21:35;;;;;;;15.05;2.95;;;26.90;99.90;;;;;;5034604;28;20025;-65
2022/01/10 03:24:03;;;;;;;16.55;3.22;;;27.20;99.90;;;;;;5035592;28;20492;-64
2022/01/10 03:26:32;;;;;;;14.30;2.70;;;27.20;99.90;;;;;;5034971;28;20033;-65
2022/01/10 03:28:59;;;;;;;14.82;2.85;;;27.10;99.90;;;;;;5034774;28;20101;-64
2022/01/10 03:31:27;;;;;;;19.42;3.03;;;26.90;99.90;;;;;;5032728;28;20037;-65
2022/01/10 03:33:55;;;;;;;22.15;4.05;;;26.70;99.90;;;;;;5033288;28;20021;-65
2022/01/10 03:36:22;;;;;;;9.60;1.90;;;26.60;99.90;;;;;;5026912;28;20096;-65
2022/01/10 03:38:49;;;;;;;16.88;3.28;;;26.60;99.90;;;;;;5023689;28;20044;-65
2022/01/10 03:41:16;;;;;;;12.63;2.53;;;26.50;99.90;;;;;;5014829;28;20458;-65
2022/01/10 03:43:44;;;;;;;12.60;3.13;;;26.50;99.90;;;;;;5031292;28;20509;-65
2022/01/10 03:46:11;;;;;;;15.55;2.78;;;26.60;99.90;;;;;;5033901;28;20109;-64
2022/01/10 03:48:38;;;;;;;17.50;3.25;;;26.60;99.90;;;;;;5031011;28;20363;-65
2022/01/10 03:51:06;;;;;;;15.52;3.05;;;26.60;99.90;;;;;;5012693;28;20099;-66
2022/01/10 03:53:33;;;;;;;13.00;2.72;;;26.70;99.90;;;;;;5033904;28;20086;-65
2022/01/10 03:56:01;;;;;;;11.70;2.88;;;26.60;99.90;;;;;;5031186;28;20125;-65
2022/01/10 03:58:31;;;;;;;13.98;2.97;;;26.70;99.90;;;;;;5013867;28;20060;-65
2022/01/10 04:00:59;;;;;;;16.27;3.53;;;26.70;99.90;;;;;;5034634;28;20017;-66
2022/01/10 04:03:27;;;;;;;15.10;2.95;;;26.50;99.90;;;;;;5028934;28;20022;-65
2022/01/10 04:05:54;;;;;;;14.95;3.47;;;26.40;99.90;;;;;;5034179;28;20017;-65
2022/01/10 04:08:24;;;;;;;9.32;1.92;;;26.60;99.90;;;;;;5038261;28;20401;-65
2022/01/10 04:10:53;;;;;;;19.00;3.33;;;26.60;99.90;;;;;;5025196;28;20037;-66
2022/01/10 04:13:20;;;;;;;10.98;2.50;;;26.60;99.90;;;;;;5031881;28;20017;-65
2022/01/10 04:15:48;;;;;;;12.90;2.72;;;26.70;99.90;;;;;;5037128;28;20107;-65
2022/01/10 04:18:15;;;;;;;17.35;2.35;;;26.60;99.90;;;;;;5038472;28;20394;-65
2022/01/10 04:20:45;;;;;;;17.90;3.33;;;26.50;99.90;;;;;;5033125;28;20030;-66
2022/01/10 04:23:13;;;;;;;14.52;2.53;;;26.40;99.90;;;;;;5015199;28;20034;-65
2022/01/10 04:25:41;;;;;;;9.82;1.73;;;26.40;99.90;;;;;;5030767;28;20028;-65
2022/01/10 04:28:09;;;;;;;17.25;3.83;;;26.60;99.90;;;;;;5027058;28;20404;-65
2022/01/10 04:30:36;;;;;;;15.02;2.42;;;26.50;99.90;;;;;;5024186;28;20149;-65
2022/01/10 04:33:04;;;;;;;14.23;2.60;;;26.70;99.90;;;;;;5024892;28;20033;-65
2022/01/10 04:35:32;;;;;;;13.75;2.58;;;26.60;99.90;;;;;;5031299;28;20117;-65
2022/01/10 04:38:00;;;;;;;16.63;3.00;;;26.50;99.90;;;;;;5017149;28;20021;-65
2022/01/10 04:40:27;;;;;;;12.40;2.33;;;26.60;99.90;;;;;;5040681;28;20030;-65
2022/01/10 04:42:55;;;;;;;12.85;2.47;;;26.70;99.90;;;;;;5029745;28;20025;-65
2022/01/10 04:45:22;;;;;;;14.05;2.47;;;26.70;99.90;;;;;;5031137;28;20036;-65
2022/01/10 04:47:49;;;;;;;14.45;2.42;;;26.60;99.90;;;;;;5044034;28;20032;-65
2022/01/10 04:52:51;;;;;;;15.25;2.28;;;26.70;99.90;;;;;;5031089;28;20036;-65
2022/01/10 04:55:21;;;;;;;15.50;2.85;;;26.70;99.90;;;;;;5031911;28;20026;-65
2022/01/10 04:57:48;;;;;;;11.43;2.38;;;26.70;99.90;;;;;;5033277;28;20017;-65
2022/01/10 05:00:17;;;;;;;23.75;4.00;;;26.60;99.90;;;;;;5033085;28;20037;-65
2022/01/10 05:02:49;;;;;;;13.95;2.17;;;26.60;99.90;;;;;;5032010;28;20044;-65
2022/01/10 05:05:17;;;;;;;13.20;1.90;;;26.60;99.90;;;;;;5032530;28;20047;-65
2022/01/10 05:07:44;;;;;;;14.85;3.75;;;26.60;99.90;;;;;;5030262;28;20390;-65
2022/01/10 05:10:12;;;;;;;12.43;1.92;;;26.60;99.90;;;;;;5008537;28;20030;-65
2022/01/10 05:12:42;;;;;;;13.52;2.10;;;26.60;99.90;;;;;;5032795;28;20041;-66
2022/01/10 05:15:09;;;;;;;14.15;2.50;;;26.60;99.90;;;;;;5023440;28;20044;-65
2022/01/10 05:17:37;;;;;;;14.60;2.28;;;26.60;99.90;;;;;;5026350;28;20386;-65
2022/01/10 05:20:05;;;;;;;16.27;2.80;;;26.60;99.90;;;;;;5031516;28;20045;-65
2022/01/10 05:22:33;;;;;;;14.90;2.50;;;26.60;99.90;;;;;;5029814;28;20068;-65
2022/01/10 05:25:00;;;;;;;13.60;2.08;;;26.60;99.90;;;;;;5023054;28;20018;-65
2022/01/10 05:27:27;;;;;;;18.17;2.42;;;26.60;99.90;;;;;;5030922;28;20071;-66
2022/01/10 05:29:55;;;;;;;15.23;3.80;;;26.60;99.90;;;;;;5026992;28;20029;-65
2022/01/10 05:32:22;;;;;;;16.55;2.35;;;26.60;99.90;;;;;;5033043;28;20030;-65
2022/01/10 05:34:49;;;;;;;13.73;2.40;;;26.50;99.90;;;;;;5027877;28;20033;-65
2022/01/10 05:37:16;;;;;;;17.85;3.60;;;26.50;99.90;;;;;;5033212;28;20075;-64
2022/01/10 05:39:44;;;;;;;14.13;2.42;;;26.60;99.90;;;;;;5028958;28;20026;-65
2022/01/10 05:42:11;;;;;;;16.58;2.97;;;26.70;99.90;;;;;;5029934;28;20018;-65
2022/01/10 05:44:38;;;;;;;16.45;3.35;;;26.70;99.90;;;;;;5027201;28;20104;-65
2022/01/10 05:47:06;;;;;;;11.00;2.58;;;26.80;99.90;;;;;;5032927;28;20037;-65
2022/01/10 05:49:35;;;;;;;16.10;2.42;;;26.50;99.90;;;;;;5031909;28;20037;-65
2022/01/10 05:52:02;;;;;;;12.88;3.83;;;26.30;99.90;;;;;;5011290;28;20125;-66
2022/01/10 05:54:30;;;;;;;10.50;2.38;;;26.10;99.90;;;;;;5030767;28;20454;-65
2022/01/10 05:56:57;;;;;;;15.98;3.45;;;26.30;99.90;;;;;;5032647;28;20044;-65
2022/01/10 05:59:24;;;;;;;13.15;2.92;;;26.30;99.90;;;;;;5031708;28;20484;-65
2022/01/10 06:01:51;;;;;;;16.73;2.50;;;26.20;99.90;;;;;;5028837;28;20017;-64
2022/01/10 06:04:19;;;;;;;14.75;2.75;;;26.20;99.90;;;;;;5029455;28;20036;-64
2022/01/10 06:06:46;;;;;;;16.17;2.67;;;26.10;99.90;;;;;;5024233;28;20022;-65
2022/01/10 06:09:13;;;;;;;14.65;2.72;;;26.20;99.90;;;;;;5025971;28;20075;-64
2022/01/10 06:11:40;;;;;;;16.00;2.60;;;26.40;99.90;;;;;;5022362;28;20478;-65
2022/01/10 06:14:08;;;;;;;14.88;2.75;;;26.20;99.90;;;;;;5024036;28;20558;-64
2022/01/10 06:16:36;;;;;;;12.95;2.45;;;26.10;99.90;;;;;;5032014;28;20427;-65
2022/01/10 06:19:03;;;;;;;14.05;3.00;;;26.10;99.90;;;;;;5025418;28;20100;-65
2022/01/10 06:21:31;;;;;;;16.08;2.45;;;26.20;99.90;;;;;;5027400;28;20029;-65
2022/01/10 06:23:58;;;;;;;16.42;3.20;;;26.50;99.90;;;;;;5025050;28;20500;-65
2022/01/10 06:26:25;;;;;;;11.93;2.67;;;26.60;99.90;;;;;;5017610;28;20133;-66
2022/01/10 06:28:52;;;;;;;11.88;2.42;;;26.80;99.90;;;;;;5021536;28;20056;-65
2022/01/10 06:31:20;;;;;;;12.55;1.95;;;26.90;99.90;;;;;;5026955;28;20038;-65
2022/01/10 06:33:47;;;;;;;16.42;3.20;;;26.60;99.90;;;;;;5028299;28;20025;-65
2022/01/10 06:36:14;;;;;;;14.82;2.83;;;26.50;99.90;;;;;;5031242;28;20448;-65
2022/01/10 06:38:42;;;;;;;15.82;2.78;;;26.30;99.90;;;;;;5029947;28;20030;-65
2022/01/10 06:41:09;;;;;;;15.88;3.97;;;26.50;99.90;;;;;;5031424;28;20470;-66
2022/01/10 06:43:37;;;;;;;20.08;4.63;;;26.30;99.90;;;;;;5031785;28;20026;-65
2022/01/10 06:46:05;;;;;;;16.80;3.10;;;26.30;99.90;;;;;;5025283;28;20018;-65
2022/01/10 06:48:33;;;;;;;14.25;3.03;;;26.00;99.90;;;;;;5027854;28;20371;-65
2022/01/10 06:51:00;;;;;;;27.13;4.40;;;25.90;99.90;;;;;;5030668;28;20053;-66
2022/01/10 06:53:27;;;;;;;12.55;2.22;;;26.00;99.90;;;;;;5018588;28;20060;-65
2022/01/10 06:55:55;;;;;;;20.15;2.67;;;25.80;99.90;;;;;;5030215;28;20060;-65
2022/01/10 06:58:22;;;;;;;17.55;2.85;;;25.80;99.90;;;;;;5029418;28;20029;-65
2022/01/10 07:00:49;;;;;;;16.50;2.85;;;25.90;99.90;;;;;;5040578;28;20079;-65
2022/01/10 07:03:17;;;;;;;13.93;3.13;;;25.90;99.90;;;;;;5027472;28;20044;-65
2022/01/10 07:05:44;;;;;;;13.95;3.45;;;26.10;99.90;;;;;;5027925;28;20036;-65
2022/01/10 07:08:11;;;;;;;15.70;3.58;;;26.20;99.90;;;;;;5030265;28;20104;-65
2022/01/10 07:10:38;;;;;;;11.63;2.60;;;26.20;99.90;;;;;;5029185;28;20497;-64
2022/01/10 07:13:06;;;;;;;14.18;2.80;;;26.10;99.90;;;;;;5025940;28;20040;-65
2022/01/10 07:15:33;;;;;;;10.80;2.60;;;26.10;99.90;;;;;;5007567;28;20387;-64
2022/01/10 07:18:00;;;;;;;14.15;2.60;;;26.00;99.90;;;;;;5018233;28;20383;-64
2022/01/10 07:20:27;;;;;;;10.95;2.20;;;25.90;99.90;;;;;;5030288;28;20018;-64
2022/01/10 07:22:55;;;;;;;13.10;3.15;;;26.00;99.90;;;;;;5031172;28;20029;-64
2022/01/10 07:25:22;;;;;;;16.42;3.35;;;26.00;99.90;;;;;;5030929;28;20025;-64
2022/01/10 07:27:49;;;;;;;10.60;2.63;;;26.40;99.90;;;;;;5031631;28;20025;-65
2022/01/10 07:30:16;;;;;;;15.73;2.83;;;26.80;99.90;;;;;;5015183;28;20389;-65
2022/01/10 07:32:44;;;;;;;14.07;2.75;;;26.40;99.90;;;;;;5030024;28;20044;-65
2022/01/10 07:35:12;;;;;;;14.25;2.60;;;26.10;99.90;;;;;;5033008;28;20079;-65
2022/01/10 07:37:39;;;;;;;12.85;2.60;;;26.00;99.90;;;;;;5034541;28;20034;-64
2022/01/10 07:40:07;;;;;;;14.65;2.80;;;26.00;99.90;;;;;;5030100;28;20034;-65
2022/01/10 07:42:34;;;;;;;28.08;3.63;;;25.90;99.90;;;;;;5033497;28;20045;-65
2022/01/10 07:45:03;;;;;;;13.75;2.42;;;25.70;99.90;;;;;;5020502;28;20025;-67
2022/01/10 07:47:30;;;;;;;15.50;1.88;;;25.60;99.90;;;;;;5033038;28;20068;-64
2022/01/10 07:49:58;;;;;;;14.02;2.85;;;25.50;99.90;;;;;;5030858;28;20198;-64
2022/01/10 07:52:26;;;;;;;15.00;2.88;;;25.40;99.90;;;;;;5013441;28;20038;-63
2022/01/10 07:54:54;;;;;;;12.82;2.28;;;25.40;99.90;;;;;;5034578;28;20525;-65
2022/01/10 07:57:21;;;;;;;18.75;3.25;;;25.30;99.90;;;;;;5034276;28;20033;-64
2022/01/10 07:59:49;;;;;;;17.38;3.53;;;25.10;99.90;;;;;;5031901;28;20430;-65
2022/01/10 08:02:20;;;;;;;18.05;3.28;;;25.10;99.90;;;;;;5031584;28;20486;-65
2022/01/10 08:04:48;;;;;;;13.48;2.90;;;25.00;99.90;;;;;;5026321;28;20025;-65
2022/01/10 08:07:15;;;;;;;13.75;3.55;;;25.00;99.90;;;;;;5032550;28;20112;-65
2022/01/10 08:09:43;;;;;;;13.50;2.88;;;25.00;99.90;;;;;;5031892;28;20032;-65
2022/01/10 08:12:10;;;;;;;20.27;3.92;;;25.00;99.90;;;;;;5007393;28;20060;-66
2022/01/10 08:14:38;;;;;;;16.15;2.95;;;25.00;99.90;;;;;;5033353;28;20382;-65
2022/01/10 08:17:05;;;;;;;13.93;3.10;;;24.90;99.90;;;;;;5021124;28;20034;-65
2022/01/10 08:19:34;;;;;;;14.93;3.40;;;24.90;99.90;;;;;;5030791;28;20026;-66
2022/01/10 08:22:02;;;;;;;14.32;2.97;;;24.90;99.90;;;;;;5030749;28;20033;-65
2022/01/10 08:24:30;;;;;;;13.93;2.45;;;24.90;99.90;;;;;;5034379;28;20021;-66
2022/01/10 08:26:58;;;;;;;11.95;3.17;;;24.80;99.90;;;;;;5025987;28;20026;-65
2022/01/10 08:29:25;;;;;;;17.38;3.13;;;24.70;99.90;;;;;;5032661;28;20032;-66
2022/01/10 08:31:53;;;;;;;13.32;2.65;;;24.70;99.90;;;;;;5032234;28;20036;-65
2022/01/10 08:34:21;;;;;;;19.48;4.75;;;24.70;99.90;;;;;;5031293;28;20028;-65
2022/01/10 08:36:49;;;;;;;15.48;3.45;;;24.60;99.90;;;;;;5033259;28;20485;-66
2022/01/10 08:39:17;;;;;;;13.77;3.97;;;24.60;99.90;;;;;;5030517;28;20030;-65
2022/01/10 08:41:44;;;;;;;16.05;3.55;;;24.60;99.90;;;;;;5023045;28;20064;-65
2022/01/10 08:44:14;;;;;;;16.55;3.03;;;24.60;99.90;;;;;;5032654;28;20474;-65
2022/01/10 08:46:41;;;;;;;15.70;3.30;;;24.60;99.90;;;;;;5027958;28;20036;-64
2022/01/10 08:49:09;;;;;;;19.30;3.85;;;24.60;99.90;;;;;;5033469;28;20087;-65
2022/01/10 08:51:37;;;;;;;19.38;3.47;;;24.50;99.90;;;;;;5015321;28;20057;-66
2022/01/10 08:54:04;;;;;;;23.45;3.92;;;24.40;99.90;;;;;;5022686;28;20037;-65
2022/01/10 08:56:32;;;;;;;16.17;3.35;;;24.40;99.90;;;;;;5031223;28;20025;-66
2022/01/10 08:59:01;;;;;;;14.20;3.80;;;24.40;99.90;;;;;;5027880;28;20045;-65
2022/01/10 09:01:28;;;;;;;21.00;4.35;;;24.50;99.90;;;;;;5024293;28;20025;-65
2022/01/10 09:03:55;;;;;;;19.80;3.83;;;24.50;99.90;;;;;;5018906;28;20029;-65
2022/01/10 09:06:22;;;;;;;25.35;5.30;;;24.40;99.90;;;;;;5033716;28;20038;-64
2022/01/10 09:08:52;;;;;;;17.10;3.17;;;24.40;99.90;;;;;;5031710;28;20036;-64
2022/01/10 09:11:19;;;;;;;16.75;4.18;;;24.40;99.90;;;;;;5032198;28;20044;-65
2022/01/10 09:13:46;;;;;;;21.70;4.55;;;24.40;99.90;;;;;;5029730;28;20030;-65
2022/01/10 09:16:14;;;;;;;15.57;3.50;;;24.40;99.90;;;;;;5017542;28;20100;-65
2022/01/10 09:18:41;;;;;;;16.20;4.78;;;24.40;99.90;;;;;;5032211;28;20022;-66
2022/01/10 09:21:09;;;;;;;15.90;3.90;;;24.30;99.90;;;;;;5032814;28;20080;-66
2022/01/10 09:23:36;;;;;;;17.50;3.85;;;24.40;99.90;;;;;;5025504;28;20096;-66
2022/01/10 09:26:03;;;;;;;15.55;3.22;;;24.40;99.90;;;;;;5030878;28;20021;-66
2022/01/10 09:28:31;;;;;;;21.42;4.05;;;24.40;99.90;;;;;;5025381;28;20060;-66
2022/01/10 09:30:58;;;;;;;15.85;3.45;;;24.40;99.90;;;;;;5029935;28;20031;-65
2022/01/10 09:33:25;;;;;;;18.00;4.13;;;24.40;99.90;;;;;;5030278;28;20084;-65
2022/01/10 09:35:53;;;;;;;20.10;4.07;;;24.40;99.90;;;;;;5031998;28;20474;-65
2022/01/10 09:38:20;;;;;;;23.25;4.82;;;24.40;99.90;;;;;;5030482;28;20084;-65
2022/01/10 09:40:48;;;;;;;21.13;4.80;;;24.40;99.90;;;;;;5031260;28;20039;-65
2022/01/10 09:43:16;;;;;;;18.23;3.92;;;24.40;99.90;;;;;;5026077;28;20026;-66
2022/01/10 09:45:45;;;;;;;19.25;4.45;;;24.40;99.90;;;;;;5029228;28;20029;-65
2022/01/10 09:48:12;;;;;;;19.52;4.25;;;24.40;99.90;;;;;;5029243;28;20454;-64
2022/01/10 09:50:40;;;;;;;18.58;4.70;;;24.30;99.90;;;;;;5028682;28;20493;-65
2022/01/10 09:53:08;;;;;;;21.52;4.07;;;24.20;99.90;;;;;;5028685;28;20057;-64
2022/01/10 09:55:35;;;;;;;25.60;4.57;;;24.20;99.90;;;;;;5012166;28;20036;-65
2022/01/10 09:58:04;;;;;;;18.65;4.18;;;24.20;99.90;;;;;;5027283;28;20025;-64
2022/01/10 10:00:31;;;;;;;17.67;3.63;;;24.20;99.90;;;;;;5032055;28;20087;-64
2022/01/10 10:02:59;;;;;;;19.63;4.35;;;24.10;99.90;;;;;;5032538;28;20100;-64
2022/01/10 10:05:26;;;;;;;20.27;4.18;;;24.10;99.90;;;;;;5031911;28;20029;-64
2022/01/10 10:07:54;;;;;;;19.02;4.43;;;24.00;99.90;;;;;;5030462;28;20367;-64
2022/01/10 10:10:22;;;;;;;21.65;4.38;;;24.00;99.90;;;;;;5025950;28;20036;-64
2022/01/10 10:12:51;;;;;;;16.70;4.30;;;24.00;99.90;;;;;;5027797;28;20481;-65
2022/01/10 10:15:22;;;;;;;20.02;5.18;;;24.00;99.90;;;;;;5031075;28;20022;-64
2022/01/10 10:17:50;;;;;;;25.08;5.38;;;23.90;99.90;;;;;;5025793;28;20060;-64
2022/01/10 10:20:22;;;;;;;15.73;4.10;;;23.90;99.90;;;;;;5030311;28;20033;-64
2022/01/10 10:22:53;;;;;;;16.30;4.97;;;23.90;99.90;;;;;;5031312;28;20029;-64
2022/01/10 10:25:21;;;;;;;24.42;5.53;;;23.90;99.90;;;;;;5020443;28;20108;-64
2022/01/10 10:27:50;;;;;;;25.48;4.35;;;23.90;99.90;;;;;;5020812;28;20766;-65
2022/01/10 10:30:23;;;;;;;20.77;5.47;;;23.90;99.90;;;;;;5031560;28;20029;-64
2022/01/10 10:32:51;;;;;;;20.85;4.60;;;23.90;99.90;;;;;;5037638;28;20025;-64
2022/01/10 10:35:19;;;;;;;14.90;4.05;;;23.90;99.90;;;;;;5024774;28;20128;-65
2022/01/10 10:37:48;;;;;;;21.38;4.50;;;23.90;99.90;;;;;;5033056;28;20029;-65
2022/01/10 10:40:17;;;;;;;18.13;5.15;;;23.80;99.90;;;;;;5030115;28;20025;-64
2022/01/10 10:42:45;;;;;;;26.35;5.40;;;23.80;99.90;;;;;;5030971;28;20025;-65
2022/01/10 10:45:14;;;;;;;19.20;5.07;;;23.80;99.90;;;;;;5009829;28;20122;-64
2022/01/10 10:47:44;;;;;;;24.23;4.15;;;23.80;99.90;;;;;;5026231;28;20029;-64
2022/01/10 10:50:12;;;;;;;20.77;5.00;;;23.80;99.90;;;;;;5024843;28;20057;-65
2022/01/10 10:52:41;;;;;;;20.02;4.78;;;23.80;99.90;;;;;;5028788;28;20115;-64
2022/01/10 10:55:15;;;;;;;17.77;4.38;;;23.80;99.90;;;;;;5029080;28;20017;-64
2022/01/10 10:57:45;;;;;;;21.23;4.45;;;23.80;99.90;;;;;;5029947;28;20033;-65
2022/01/10 11:00:15;;;;;;;20.67;4.30;;;23.80;99.90;;;;;;5027432;28;20033;-65
2022/01/10 11:02:43;;;;;;;22.88;5.15;;;23.80;99.90;;;;;;5020783;28;20010;-65
2022/01/10 11:05:12;;;;;;;22.67;3.45;;;23.80;99.90;;;;;;5030890;28;20033;-65
2022/01/10 11:07:39;;;;;;;20.77;5.25;;;23.80;99.90;;;;;;5027120;28;20103;-65
2022/01/10 11:10:08;;;;;;;19.27;4.78;;;23.80;99.90;;;;;;5033995;28;20033;-65
2022/01/10 11:12:41;;;;;;;24.38;4.93;;;23.80;99.90;;;;;;5034129;28;20116;-65
2022/01/10 11:15:09;;;;;;;26.90;5.03;;;23.80;99.90;;;;;;5032270;28;20034;-66
2022/01/10 11:17:41;;;;;;;25.80;5.15;;;23.70;99.90;;;;;;5032429;28;20036;-66
2022/01/10 11:20:20;;;;;;;20.50;5.22;;;23.70;99.90;;;;;;5016854;28;20532;-64
2022/01/10 11:22:58;;;;;;;19.92;4.47;;;23.70;99.90;;;;;;5030992;28;20045;-64
2022/01/10 11:25:31;;;;;;;27.92;4.75;;;23.70;99.90;;;;;;5032503;28;20022;-64
2022/01/10 11:28:05;;;;;;;16.15;4.03;;;23.70;99.90;;;;;;5030980;28;20060;-64
2022/01/10 11:30:38;;;;;;;19.90;4.63;;;23.70;99.90;;;;;;5032185;28;20499;-65
2022/01/10 11:33:08;;;;;;;19.92;5.50;;;23.70;99.90;;;;;;5035589;28;20029;-64
2022/01/10 11:35:43;;;;;;;29.38;4.93;;;23.70;99.90;;;;;;5029421;28;20021;-64
2022/01/10 11:38:25;;;;;;;25.00;5.28;;;23.70;99.90;;;;;;5033695;28;20037;-64
2022/01/10 11:41:02;;;;;;;26.88;6.07;;;23.70;99.90;;;;;;5025979;28;20451;-64
2022/01/10 11:43:40;;;;;;;28.55;4.60;;;23.70;99.90;;;;;;5029491;28;20022;-64
2022/01/10 11:46:13;;;;;;;19.00;3.95;;;23.60;99.90;;;;;;5027621;28;20034;-65
2022/01/10 11:48:45;;;;;;;17.92;3.78;;;23.70;99.90;;;;;;5031660;28;20099;-64
2022/01/10 11:51:25;;;;;;;23.48;4.32;;;23.60;99.90;;;;;;5031749;28;20041;-64
2022/01/10 11:54:00;;;;;;;17.80;4.97;;;23.60;99.90;;;;;;5031181;28;20040;-65
2022/01/10 11:56:33;;;;;;;20.45;4.22;;;23.60;99.90;;;;;;5033303;28;20025;-63
2022/01/10 11:59:27;;;;;;;18.35;4.57;;;23.60;99.90;;;;;;5018897;28;20110;-63
2022/01/10 12:02:11;;;;;;;21.73;4.70;;;23.60;99.90;;;;;;5031705;28;20017;-63
2022/01/10 12:04:43;;;;;;;20.95;6.10;;;23.60;99.90;;;;;;5033132;28;20025;-64
2022/01/10 12:07:13;;;;;;;17.67;4.43;;;23.60;99.90;;;;;;5029794;28;20049;-64
2022/01/10 12:09:41;;;;;;;17.90;4.88;;;23.60;99.90;;;;;;5033837;28;20021;-64
2022/01/10 12:12:11;;;;;;;23.48;5.40;;;23.60;99.90;;;;;;5032162;28;20025;-64
2022/01/10 12:14:39;;;;;;;18.48;3.88;;;23.60;99.90;;;;;;5031398;28;20048;-64
2022/01/10 12:17:08;;;;;;;23.65;3.97;;;23.60;99.90;;;;;;5033587;28;20092;-64
2022/01/10 12:19:36;;;;;;;21.80;4.03;;;23.60;99.90;;;;;;5032502;28;20033;-64
2022/01/10 12:22:07;;;;;;;20.35;5.32;;;23.60;99.90;;;;;;5029148;28;20033;-64
2022/01/10 12:24:35;;;;;;;19.85;4.90;;;23.60;99.90;;;;;;5033934;28;20363;-64
2022/01/10 12:27:05;;;;;;;18.27;4.85;;;23.70;99.90;;;;;;5038614;28;20037;-64
2022/01/10 12:29:33;;;;;;;19.38;4.03;;;23.60;99.90;;;;;;5032385;28;20022;-64
2022/01/10 12:32:01;;;;;;;24.02;4.88;;;23.60;99.90;;;;;;5032826;28;20387;-64
2022/01/10 12:34:29;;;;;;;20.40;4.70;;;23.70;99.90;;;;;;5032186;28;20064;-63
2022/01/10 12:36:56;;;;;;;17.95;4.13;;;23.70;99.90;;;;;;5030577;28;20069;-64
2022/01/10 12:39:26;;;;;;;17.88;4.50;;;23.70;99.90;;;;;;5031197;28;20036;-64
2022/01/10 12:41:57;;;;;;;19.00;4.97;;;23.60;99.90;;;;;;5032262;28;20470;-64
2022/01/10 12:44:26;;;;;;;15.80;4.10;;;23.60;99.90;;;;;;5033078;28;20022;-64
2022/01/10 12:46:54;;;;;;;21.00;4.13;;;23.60;99.90;;;;;;5033294;28;20033;-64
2022/01/10 12:49:22;;;;;;;22.45;5.10;;;23.70;99.90;;;;;;5032674;28;20490;-64
2022/01/10 12:51:55;;;;;;;16.55;3.20;;;23.60;99.90;;;;;;5032434;28;20047;-64
2022/01/10 12:54:28;;;;;;;32.15;5.15;;;23.60;99.90;;;;;;5032986;28;20038;-64
2022/01/10 12:56:56;;;;;;;21.40;4.47;;;23.60;99.90;;;;;;5032942;28;20391;-64
2022/01/10 12:59:26;;;;;;;22.77;4.75;;;23.60;99.90;;;;;;5026957;28;20033;-64